sensor_id;sensor_type;location;lat;lon;timestamp;P1;durP1;ratioP1;P2;durP2;ratioP2
76727;SDS011;65652;53.132;18.026;2023-03-13T00:01:46;18.40;;;5.50;;
76727;SDS011;65652;53.132;18.026;2023-03-13T00:04:15;14.20;;;5.50;;
76727;SDS011;65652;53.132;18.026;2023-03-13T00:06:42;14.00;;;5.70;;
76727;SDS011;65652;53.132;18.026;2023-03-13T00:09:10;19.20;;;6.10;;
76727;SDS011;65652;53.132;18.026;2023-03-13T00:11:39;15.20;;;5.60;;
76727;SDS011;65652;53.132;18.026;2023-03-13T00:14:06;16.20;;;6.20;;
76727;SDS011;65652;53.132;18.026;2023-03-13T00:16:34;14.50;;;5.90;;
76727;SDS011;65652;53.132;18.026;2023-03-13T00:19:03;15.30;;;6.50;;
76727;SDS011;65652;53.132;18.026;2023-03-13T00:21:31;17.50;;;6.40;;
76727;SDS011;65652;53.132;18.026;2023-03-13T00:23:58;19.30;;;6.30;;
76727;SDS011;65652;53.132;18.026;2023-03-13T00:26:26;17.00;;;6.60;;
76727;SDS011;65652;53.132;18.026;2023-03-13T00:31:23;17.50;;;6.70;;
76727;SDS011;65652;53.132;18.026;2023-03-13T00:33:52;16.60;;;6.20;;
76727;SDS011;65652;53.132;18.026;2023-03-13T00:36:21;16.30;;;5.70;;
76727;SDS011;65652;53.132;18.026;2023-03-13T00:38:50;15.30;;;5.40;;
76727;SDS011;65652;53.132;18.026;2023-03-13T00:43:47;17.20;;;6.20;;
76727;SDS011;65652;53.132;18.026;2023-03-13T00:46:15;14.50;;;6.00;;
76727;SDS011;65652;53.132;18.026;2023-03-13T00:48:44;18.60;;;6.00;;
76727;SDS011;65652;53.132;18.026;2023-03-13T00:51:12;22.20;;;7.10;;
76727;SDS011;65652;53.132;18.026;2023-03-13T00:53:40;18.20;;;6.30;;
76727;SDS011;65652;53.132;18.026;2023-03-13T00:56:08;16.70;;;6.70;;
76727;SDS011;65652;53.132;18.026;2023-03-13T00:58:39;17.70;;;6.70;;
76727;SDS011;65652;53.132;18.026;2023-03-13T01:01:12;18.50;;;6.30;;
76727;SDS011;65652;53.132;18.026;2023-03-13T01:03:45;16.30;;;6.00;;
76727;SDS011;65652;53.132;18.026;2023-03-13T01:06:15;16.00;;;6.50;;
76727;SDS011;65652;53.132;18.026;2023-03-13T01:08:44;16.50;;;5.20;;
76727;SDS011;65652;53.132;18.026;2023-03-13T01:11:15;17.30;;;5.70;;
76727;SDS011;65652;53.132;18.026;2023-03-13T01:13:45;14.90;;;5.70;;
76727;SDS011;65652;53.132;18.026;2023-03-13T01:18:42;12.20;;;4.20;;
76727;SDS011;65652;53.132;18.026;2023-03-13T01:21:12;15.10;;;5.40;;
76727;SDS011;65652;53.132;18.026;2023-03-13T01:23:40;12.80;;;4.50;;
76727;SDS011;65652;53.132;18.026;2023-03-13T01:26:08;9.20;;;3.60;;
76727;SDS011;65652;53.132;18.026;2023-03-13T01:28:35;10.50;;;4.10;;
76727;SDS011;65652;53.132;18.026;2023-03-13T01:31:10;12.30;;;4.30;;
76727;SDS011;65652;53.132;18.026;2023-03-13T01:33:37;9.90;;;3.90;;
76727;SDS011;65652;53.132;18.026;2023-03-13T01:36:04;8.60;;;3.70;;
76727;SDS011;65652;53.132;18.026;2023-03-13T01:38:31;9.60;;;4.10;;
76727;SDS011;65652;53.132;18.026;2023-03-13T01:40:58;10.20;;;4.20;;
76727;SDS011;65652;53.132;18.026;2023-03-13T01:43:26;9.90;;;3.90;;
76727;SDS011;65652;53.132;18.026;2023-03-13T01:49:12;11.60;;;4.30;;
76727;SDS011;65652;53.132;18.026;2023-03-13T01:51:54;11.70;;;4.60;;
76727;SDS011;65652;53.132;18.026;2023-03-13T01:54:29;13.60;;;4.90;;
76727;SDS011;65652;53.132;18.026;2023-03-13T01:57:07;12.00;;;4.60;;
76727;SDS011;65652;53.132;18.026;2023-03-13T02:00:24;11.60;;;5.20;;
76727;SDS011;65652;53.132;18.026;2023-03-13T02:02:46;12.00;;;5.10;;
76727;SDS011;65652;53.132;18.026;2023-03-13T02:05:16;13.50;;;5.80;;
76727;SDS011;65652;53.132;18.026;2023-03-13T02:07:51;11.60;;;5.00;;
76727;SDS011;65652;53.132;18.026;2023-03-13T02:10:24;12.50;;;5.90;;
76727;SDS011;65652;53.132;18.026;2023-03-13T02:12:56;16.10;;;5.60;;
76727;SDS011;65652;53.132;18.026;2023-03-13T02:15:25;14.60;;;5.30;;
76727;SDS011;65652;53.132;18.026;2023-03-13T02:17:53;10.60;;;4.70;;
76727;SDS011;65652;53.132;18.026;2023-03-13T02:20:21;13.10;;;5.40;;
76727;SDS011;65652;53.132;18.026;2023-03-13T02:23:02;12.20;;;5.70;;
76727;SDS011;65652;53.132;18.026;2023-03-13T02:30:46;9.70;;;4.50;;
76727;SDS011;65652;53.132;18.026;2023-03-13T02:33:16;11.50;;;5.30;;
76727;SDS011;65652;53.132;18.026;2023-03-13T02:35:45;13.20;;;6.10;;
76727;SDS011;65652;53.132;18.026;2023-03-13T02:38:22;11.40;;;5.00;;
76727;SDS011;65652;53.132;18.026;2023-03-13T02:40:52;13.90;;;6.20;;
76727;SDS011;65652;53.132;18.026;2023-03-13T02:43:21;12.60;;;5.40;;
76727;SDS011;65652;53.132;18.026;2023-03-13T02:48:46;13.10;;;5.90;;
76727;SDS011;65652;53.132;18.026;2023-03-13T02:51:23;12.10;;;5.70;;
76727;SDS011;65652;53.132;18.026;2023-03-13T02:54:09;17.20;;;7.00;;
76727;SDS011;65652;53.132;18.026;2023-03-13T02:56:40;13.90;;;5.80;;
76727;SDS011;65652;53.132;18.026;2023-03-13T02:59:11;13.40;;;5.30;;
76727;SDS011;65652;53.132;18.026;2023-03-13T03:01:40;13.80;;;6.40;;
76727;SDS011;65652;53.132;18.026;2023-03-13T03:04:07;13.90;;;6.00;;
76727;SDS011;65652;53.132;18.026;2023-03-13T03:06:34;16.00;;;5.90;;
76727;SDS011;65652;53.132;18.026;2023-03-13T03:09:02;14.30;;;6.20;;
76727;SDS011;65652;53.132;18.026;2023-03-13T03:11:30;13.50;;;6.80;;
76727;SDS011;65652;53.132;18.026;2023-03-13T03:14:00;18.50;;;7.20;;
76727;SDS011;65652;53.132;18.026;2023-03-13T03:16:29;16.30;;;7.30;;
76727;SDS011;65652;53.132;18.026;2023-03-13T03:18:56;13.60;;;7.00;;
76727;SDS011;65652;53.132;18.026;2023-03-13T03:21:23;16.20;;;7.60;;
76727;SDS011;65652;53.132;18.026;2023-03-13T03:23:51;17.70;;;7.40;;
76727;SDS011;65652;53.132;18.026;2023-03-13T03:26:18;14.30;;;7.60;;
76727;SDS011;65652;53.132;18.026;2023-03-13T03:28:45;15.60;;;6.50;;
76727;SDS011;65652;53.132;18.026;2023-03-13T03:31:13;17.20;;;7.60;;
76727;SDS011;65652;53.132;18.026;2023-03-13T03:36:12;16.20;;;6.90;;
76727;SDS011;65652;53.132;18.026;2023-03-13T03:38:40;17.20;;;7.40;;
76727;SDS011;65652;53.132;18.026;2023-03-13T03:41:09;18.10;;;8.00;;
76727;SDS011;65652;53.132;18.026;2023-03-13T03:43:38;19.40;;;7.90;;
76727;SDS011;65652;53.132;18.026;2023-03-13T03:46:05;15.20;;;7.20;;
76727;SDS011;65652;53.132;18.026;2023-03-13T03:48:33;18.50;;;8.30;;
76727;SDS011;65652;53.132;18.026;2023-03-13T03:51:01;19.70;;;8.30;;
76727;SDS011;65652;53.132;18.026;2023-03-13T03:53:28;18.60;;;8.10;;
76727;SDS011;65652;53.132;18.026;2023-03-13T03:55:56;17.70;;;7.50;;
76727;SDS011;65652;53.132;18.026;2023-03-13T03:58:23;17.60;;;7.80;;
76727;SDS011;65652;53.132;18.026;2023-03-13T04:00:58;14.00;;;6.00;;
76727;SDS011;65652;53.132;18.026;2023-03-13T04:03:26;20.80;;;8.60;;
76727;SDS011;65652;53.132;18.026;2023-03-13T04:05:53;15.80;;;7.80;;
76727;SDS011;65652;53.132;18.026;2023-03-13T04:08:22;16.70;;;7.60;;
76727;SDS011;65652;53.132;18.026;2023-03-13T04:10:50;17.80;;;8.30;;
76727;SDS011;65652;53.132;18.026;2023-03-13T04:13:20;20.30;;;8.40;;
76727;SDS011;65652;53.132;18.026;2023-03-13T04:15:47;19.40;;;8.70;;
76727;SDS011;65652;53.132;18.026;2023-03-13T04:18:15;19.50;;;8.20;;
76727;SDS011;65652;53.132;18.026;2023-03-13T04:20:42;21.40;;;8.30;;
76727;SDS011;65652;53.132;18.026;2023-03-13T04:23:10;22.80;;;9.10;;
76727;SDS011;65652;53.132;18.026;2023-03-13T04:25:37;20.10;;;8.20;;
76727;SDS011;65652;53.132;18.026;2023-03-13T04:28:05;19.50;;;9.00;;
76727;SDS011;65652;53.132;18.026;2023-03-13T04:30:38;26.40;;;10.50;;
76727;SDS011;65652;53.132;18.026;2023-03-13T04:33:25;27.10;;;10.30;;
76727;SDS011;65652;53.132;18.026;2023-03-13T04:36:11;22.30;;;9.30;;
76727;SDS011;65652;53.132;18.026;2023-03-13T04:39:00;20.40;;;8.20;;
76727;SDS011;65652;53.132;18.026;2023-03-13T04:41:48;23.00;;;9.10;;
76727;SDS011;65652;53.132;18.026;2023-03-13T04:44:23;24.20;;;9.80;;
76727;SDS011;65652;53.132;18.026;2023-03-13T04:47:16;21.90;;;9.60;;
76727;SDS011;65652;53.132;18.026;2023-03-13T04:50:21;25.10;;;10.20;;
76727;SDS011;65652;53.132;18.026;2023-03-13T04:53:05;25.90;;;10.20;;
76727;SDS011;65652;53.132;18.026;2023-03-13T04:55:58;24.90;;;9.60;;
76727;SDS011;65652;53.132;18.026;2023-03-13T04:58:44;26.20;;;10.20;;
76727;SDS011;65652;53.132;18.026;2023-03-13T05:01:27;26.10;;;10.50;;
76727;SDS011;65652;53.132;18.026;2023-03-13T05:04:08;25.80;;;10.80;;
76727;SDS011;65652;53.132;18.026;2023-03-13T05:06:44;22.80;;;9.40;;
76727;SDS011;65652;53.132;18.026;2023-03-13T05:09:30;23.20;;;10.30;;
76727;SDS011;65652;53.132;18.026;2023-03-13T05:12:23;25.40;;;10.60;;
76727;SDS011;65652;53.132;18.026;2023-03-13T05:15:22;27.80;;;10.50;;
76727;SDS011;65652;53.132;18.026;2023-03-13T05:18:15;23.60;;;10.10;;
76727;SDS011;65652;53.132;18.026;2023-03-13T05:21:01;25.60;;;10.50;;
76727;SDS011;65652;53.132;18.026;2023-03-13T05:23:47;26.30;;;10.70;;
76727;SDS011;65652;53.132;18.026;2023-03-13T05:26:36;27.10;;;10.90;;
76727;SDS011;65652;53.132;18.026;2023-03-13T05:29:36;23.90;;;9.50;;
76727;SDS011;65652;53.132;18.026;2023-03-13T05:32:06;26.70;;;11.30;;
76727;SDS011;65652;53.132;18.026;2023-03-13T05:34:45;26.10;;;11.00;;
76727;SDS011;65652;53.132;18.026;2023-03-13T05:37:31;29.50;;;12.60;;
76727;SDS011;65652;53.132;18.026;2023-03-13T05:40:16;31.30;;;12.20;;
76727;SDS011;65652;53.132;18.026;2023-03-13T05:43:03;27.30;;;11.10;;
76727;SDS011;65652;53.132;18.026;2023-03-13T05:45:49;27.20;;;10.70;;
76727;SDS011;65652;53.132;18.026;2023-03-13T05:48:48;28.40;;;11.70;;
76727;SDS011;65652;53.132;18.026;2023-03-13T05:51:47;29.30;;;11.80;;
76727;SDS011;65652;53.132;18.026;2023-03-13T05:54:29;21.00;;;9.60;;
76727;SDS011;65652;53.132;18.026;2023-03-13T05:56:58;27.90;;;12.00;;
76727;SDS011;65652;53.132;18.026;2023-03-13T05:59:41;27.70;;;11.90;;
76727;SDS011;65652;53.132;18.026;2023-03-13T06:02:40;27.20;;;12.20;;
76727;SDS011;65652;53.132;18.026;2023-03-13T06:05:10;25.30;;;10.90;;
76727;SDS011;65652;53.132;18.026;2023-03-13T06:07:38;26.80;;;12.30;;
76727;SDS011;65652;53.132;18.026;2023-03-13T06:10:05;27.10;;;10.50;;
76727;SDS011;65652;53.132;18.026;2023-03-13T06:12:32;26.30;;;10.50;;
76727;SDS011;65652;53.132;18.026;2023-03-13T06:14:59;28.60;;;12.80;;
76727;SDS011;65652;53.132;18.026;2023-03-13T06:17:49;30.20;;;12.60;;
76727;SDS011;65652;53.132;18.026;2023-03-13T06:20:16;22.40;;;10.20;;
76727;SDS011;65652;53.132;18.026;2023-03-13T06:22:43;27.80;;;10.90;;
76727;SDS011;65652;53.132;18.026;2023-03-13T06:25:10;21.70;;;9.40;;
76727;SDS011;65652;53.132;18.026;2023-03-13T06:27:37;25.60;;;12.10;;
76727;SDS011;65652;53.132;18.026;2023-03-13T06:30:04;22.70;;;10.70;;
76727;SDS011;65652;53.132;18.026;2023-03-13T06:32:31;23.10;;;9.70;;
76727;SDS011;65652;53.132;18.026;2023-03-13T06:34:58;20.90;;;9.30;;
76727;SDS011;65652;53.132;18.026;2023-03-13T06:37:24;22.10;;;9.60;;
76727;SDS011;65652;53.132;18.026;2023-03-13T06:39:51;25.80;;;11.50;;
76727;SDS011;65652;53.132;18.026;2023-03-13T06:42:18;23.70;;;10.30;;
76727;SDS011;65652;53.132;18.026;2023-03-13T06:44:45;20.50;;;9.50;;
76727;SDS011;65652;53.132;18.026;2023-03-13T06:47:12;17.60;;;8.50;;
76727;SDS011;65652;53.132;18.026;2023-03-13T06:49:39;20.10;;;8.80;;
76727;SDS011;65652;53.132;18.026;2023-03-13T06:52:06;23.10;;;9.90;;
76727;SDS011;65652;53.132;18.026;2023-03-13T06:54:33;24.30;;;10.20;;
76727;SDS011;65652;53.132;18.026;2023-03-13T06:56:59;21.20;;;9.50;;
76727;SDS011;65652;53.132;18.026;2023-03-13T06:59:26;21.60;;;9.20;;
76727;SDS011;65652;53.132;18.026;2023-03-13T07:01:53;21.80;;;8.50;;
76727;SDS011;65652;53.132;18.026;2023-03-13T07:04:20;24.30;;;10.90;;
76727;SDS011;65652;53.132;18.026;2023-03-13T07:06:47;24.80;;;11.40;;
76727;SDS011;65652;53.132;18.026;2023-03-13T07:09:14;22.30;;;10.20;;
76727;SDS011;65652;53.132;18.026;2023-03-13T07:11:41;23.80;;;10.30;;
76727;SDS011;65652;53.132;18.026;2023-03-13T07:14:08;25.50;;;10.80;;
76727;SDS011;65652;53.132;18.026;2023-03-13T07:16:35;25.20;;;10.30;;
76727;SDS011;65652;53.132;18.026;2023-03-13T07:19:01;23.30;;;10.20;;
76727;SDS011;65652;53.132;18.026;2023-03-13T07:21:28;21.10;;;9.50;;
76727;SDS011;65652;53.132;18.026;2023-03-13T07:23:55;20.30;;;9.30;;
76727;SDS011;65652;53.132;18.026;2023-03-13T07:26:22;20.20;;;10.50;;
76727;SDS011;65652;53.132;18.026;2023-03-13T07:28:49;18.40;;;9.20;;
76727;SDS011;65652;53.132;18.026;2023-03-13T07:31:17;19.90;;;8.60;;
76727;SDS011;65652;53.132;18.026;2023-03-13T07:33:45;18.20;;;8.10;;
76727;SDS011;65652;53.132;18.026;2023-03-13T07:36:13;18.30;;;8.40;;
76727;SDS011;65652;53.132;18.026;2023-03-13T07:38:41;16.80;;;7.30;;
76727;SDS011;65652;53.132;18.026;2023-03-13T07:41:10;19.00;;;8.30;;
76727;SDS011;65652;53.132;18.026;2023-03-13T07:43:38;16.70;;;7.90;;
76727;SDS011;65652;53.132;18.026;2023-03-13T07:46:06;18.30;;;7.80;;
76727;SDS011;65652;53.132;18.026;2023-03-13T07:48:37;17.00;;;7.00;;
76727;SDS011;65652;53.132;18.026;2023-03-13T07:51:05;16.60;;;7.40;;
76727;SDS011;65652;53.132;18.026;2023-03-13T07:53:34;15.60;;;7.40;;
76727;SDS011;65652;53.132;18.026;2023-03-13T07:56:02;17.80;;;6.80;;
76727;SDS011;65652;53.132;18.026;2023-03-13T07:58:34;14.60;;;5.30;;
76727;SDS011;65652;53.132;18.026;2023-03-13T08:03:41;14.40;;;5.70;;
76727;SDS011;65652;53.132;18.026;2023-03-13T08:06:09;11.50;;;5.10;;
76727;SDS011;65652;53.132;18.026;2023-03-13T08:08:40;11.90;;;4.70;;
76727;SDS011;65652;53.132;18.026;2023-03-13T08:11:17;13.40;;;5.30;;
76727;SDS011;65652;53.132;18.026;2023-03-13T08:13:46;11.50;;;4.60;;
76727;SDS011;65652;53.132;18.026;2023-03-13T08:16:16;11.60;;;4.60;;
76727;SDS011;65652;53.132;18.026;2023-03-13T08:18:48;10.90;;;5.00;;
76727;SDS011;65652;53.132;18.026;2023-03-13T08:21:17;11.20;;;4.50;;
76727;SDS011;65652;53.132;18.026;2023-03-13T08:23:46;10.90;;;4.40;;
76727;SDS011;65652;53.132;18.026;2023-03-13T08:26:17;12.00;;;4.30;;
76727;SDS011;65652;53.132;18.026;2023-03-13T08:28:46;13.40;;;4.60;;
76727;SDS011;65652;53.132;18.026;2023-03-13T08:31:14;10.30;;;4.20;;
76727;SDS011;65652;53.132;18.026;2023-03-13T08:33:44;11.60;;;4.10;;
76727;SDS011;65652;53.132;18.026;2023-03-13T08:36:19;13.20;;;4.60;;
76727;SDS011;65652;53.132;18.026;2023-03-13T08:38:50;11.50;;;3.70;;
76727;SDS011;65652;53.132;18.026;2023-03-13T08:41:20;10.00;;;3.90;;
76727;SDS011;65652;53.132;18.026;2023-03-13T08:43:50;11.80;;;4.50;;
76727;SDS011;65652;53.132;18.026;2023-03-13T08:46:18;10.70;;;4.40;;
76727;SDS011;65652;53.132;18.026;2023-03-13T08:48:49;11.70;;;4.20;;
76727;SDS011;65652;53.132;18.026;2023-03-13T08:51:17;11.40;;;4.90;;
76727;SDS011;65652;53.132;18.026;2023-03-13T08:53:45;10.30;;;4.20;;
76727;SDS011;65652;53.132;18.026;2023-03-13T08:56:14;12.40;;;5.20;;
76727;SDS011;65652;53.132;18.026;2023-03-13T08:58:50;15.30;;;4.70;;
76727;SDS011;65652;53.132;18.026;2023-03-13T09:01:19;13.90;;;4.80;;
76727;SDS011;65652;53.132;18.026;2023-03-13T09:03:47;15.60;;;4.50;;
76727;SDS011;65652;53.132;18.026;2023-03-13T09:06:14;12.40;;;4.50;;
76727;SDS011;65652;53.132;18.026;2023-03-13T09:08:42;12.30;;;4.40;;
76727;SDS011;65652;53.132;18.026;2023-03-13T09:11:10;10.90;;;4.20;;
76727;SDS011;65652;53.132;18.026;2023-03-13T09:13:48;11.90;;;4.80;;
76727;SDS011;65652;53.132;18.026;2023-03-13T09:16:17;13.80;;;4.80;;
76727;SDS011;65652;53.132;18.026;2023-03-13T09:18:45;15.10;;;5.10;;
76727;SDS011;65652;53.132;18.026;2023-03-13T09:21:23;16.00;;;5.30;;
76727;SDS011;65652;53.132;18.026;2023-03-13T09:23:52;12.80;;;5.00;;
76727;SDS011;65652;53.132;18.026;2023-03-13T09:26:19;12.90;;;4.60;;
76727;SDS011;65652;53.132;18.026;2023-03-13T09:28:47;16.10;;;5.30;;
76727;SDS011;65652;53.132;18.026;2023-03-13T09:31:15;16.00;;;5.40;;
76727;SDS011;65652;53.132;18.026;2023-03-13T09:33:45;13.70;;;4.60;;
76727;SDS011;65652;53.132;18.026;2023-03-13T09:36:14;16.30;;;5.80;;
76727;SDS011;65652;53.132;18.026;2023-03-13T09:38:41;16.80;;;5.80;;
76727;SDS011;65652;53.132;18.026;2023-03-13T09:46:54;17.00;;;6.10;;
76727;SDS011;65652;53.132;18.026;2023-03-13T09:49:40;15.20;;;5.90;;
76727;SDS011;65652;53.132;18.026;2023-03-13T09:52:24;14.60;;;6.00;;
76727;SDS011;65652;53.132;18.026;2023-03-13T09:57:37;14.00;;;6.10;;
76727;SDS011;65652;53.132;18.026;2023-03-13T10:00:13;12.90;;;5.40;;
76727;SDS011;65652;53.132;18.026;2023-03-13T10:02:58;13.30;;;5.40;;
76727;SDS011;65652;53.132;18.026;2023-03-13T10:05:31;16.30;;;5.60;;
76727;SDS011;65652;53.132;18.026;2023-03-13T10:10:43;16.70;;;5.20;;
76727;SDS011;65652;53.132;18.026;2023-03-13T10:13:18;16.80;;;5.90;;
76727;SDS011;65652;53.132;18.026;2023-03-13T10:15:58;14.40;;;5.30;;
76727;SDS011;65652;53.132;18.026;2023-03-13T10:18:28;15.80;;;4.70;;
76727;SDS011;65652;53.132;18.026;2023-03-13T10:20:56;12.60;;;4.60;;
76727;SDS011;65652;53.132;18.026;2023-03-13T10:23:35;10.40;;;3.70;;
76727;SDS011;65652;53.132;18.026;2023-03-13T10:26:09;13.20;;;4.90;;
76727;SDS011;65652;53.132;18.026;2023-03-13T10:28:43;11.70;;;4.90;;
76727;SDS011;65652;53.132;18.026;2023-03-13T10:34:09;12.30;;;4.50;;
76727;SDS011;65652;53.132;18.026;2023-03-13T10:36:42;13.10;;;4.40;;
76727;SDS011;65652;53.132;18.026;2023-03-13T10:39:18;14.00;;;5.10;;
76727;SDS011;65652;53.132;18.026;2023-03-13T10:41:48;15.60;;;5.00;;
76727;SDS011;65652;53.132;18.026;2023-03-13T10:44:16;12.20;;;4.50;;
76727;SDS011;65652;53.132;18.026;2023-03-13T10:46:46;15.80;;;4.80;;
76727;SDS011;65652;53.132;18.026;2023-03-13T10:49:15;15.70;;;5.40;;
76727;SDS011;65652;53.132;18.026;2023-03-13T10:51:51;13.30;;;4.10;;
76727;SDS011;65652;53.132;18.026;2023-03-13T10:54:27;17.90;;;5.40;;
76727;SDS011;65652;53.132;18.026;2023-03-13T10:59:44;11.50;;;4.70;;
76727;SDS011;65652;53.132;18.026;2023-03-13T11:02:34;17.20;;;5.50;;
76727;SDS011;65652;53.132;18.026;2023-03-13T11:07:49;13.60;;;4.90;;
76727;SDS011;65652;53.132;18.026;2023-03-13T11:10:26;15.10;;;5.30;;
76727;SDS011;65652;53.132;18.026;2023-03-13T11:13:03;13.50;;;4.70;;
76727;SDS011;65652;53.132;18.026;2023-03-13T11:15:44;12.10;;;4.20;;
76727;SDS011;65652;53.132;18.026;2023-03-13T11:18:40;16.10;;;5.40;;
76727;SDS011;65652;53.132;18.026;2023-03-13T11:21:23;11.40;;;4.50;;
76727;SDS011;65652;53.132;18.026;2023-03-13T11:24:05;12.30;;;4.70;;
76727;SDS011;65652;53.132;18.026;2023-03-13T11:26:38;15.00;;;4.80;;
76727;SDS011;65652;53.132;18.026;2023-03-13T11:29:29;13.20;;;4.40;;
76727;SDS011;65652;53.132;18.026;2023-03-13T11:32:09;16.90;;;5.80;;
76727;SDS011;65652;53.132;18.026;2023-03-13T11:34:57;16.20;;;5.10;;
76727;SDS011;65652;53.132;18.026;2023-03-13T11:37:27;15.10;;;4.90;;
76727;SDS011;65652;53.132;18.026;2023-03-13T11:40:04;14.40;;;4.90;;
76727;SDS011;65652;53.132;18.026;2023-03-13T11:42:39;16.90;;;5.30;;
76727;SDS011;65652;53.132;18.026;2023-03-13T11:48:28;15.90;;;5.60;;
76727;SDS011;65652;53.132;18.026;2023-03-13T12:01:52;12.60;;;4.90;;
76727;SDS011;65652;53.132;18.026;2023-03-13T12:04:30;21.20;;;7.00;;
76727;SDS011;65652;53.132;18.026;2023-03-13T12:07:09;17.90;;;5.90;;
76727;SDS011;65652;53.132;18.026;2023-03-13T12:09:42;12.70;;;4.50;;
76727;SDS011;65652;53.132;18.026;2023-03-13T12:17:50;14.20;;;4.50;;
76727;SDS011;65652;53.132;18.026;2023-03-13T12:20:26;12.70;;;5.40;;
76727;SDS011;65652;53.132;18.026;2023-03-13T12:25:33;13.40;;;4.60;;
76727;SDS011;65652;53.132;18.026;2023-03-13T12:42:31;13.40;;;4.90;;
76727;SDS011;65652;53.132;18.026;2023-03-13T12:44:59;13.70;;;5.20;;
76727;SDS011;65652;53.132;18.026;2023-03-13T12:47:50;11.10;;;4.80;;
76727;SDS011;65652;53.132;18.026;2023-03-13T12:50:40;12.80;;;5.60;;
76727;SDS011;65652;53.132;18.026;2023-03-13T12:53:29;11.00;;;4.80;;
76727;SDS011;65652;53.132;18.026;2023-03-13T12:58:58;12.00;;;4.50;;
76727;SDS011;65652;53.132;18.026;2023-03-13T13:01:50;11.80;;;4.40;;
76727;SDS011;65652;53.132;18.026;2023-03-13T13:04:23;10.00;;;3.40;;
76727;SDS011;65652;53.132;18.026;2023-03-13T13:07:00;11.00;;;4.60;;
76727;SDS011;65652;53.132;18.026;2023-03-13T13:09:59;9.10;;;3.10;;
76727;SDS011;65652;53.132;18.026;2023-03-13T13:12:26;11.60;;;4.20;;
76727;SDS011;65652;53.132;18.026;2023-03-13T13:14:57;12.40;;;5.00;;
76727;SDS011;65652;53.132;18.026;2023-03-13T13:36:54;11.30;;;4.60;;
76727;SDS011;65652;53.132;18.026;2023-03-13T13:39:44;8.80;;;3.90;;
76727;SDS011;65652;53.132;18.026;2023-03-13T13:45:02;9.00;;;3.30;;
76727;SDS011;65652;53.132;18.026;2023-03-13T13:47:46;8.00;;;3.40;;
76727;SDS011;65652;53.132;18.026;2023-03-13T13:50:24;7.20;;;3.20;;
76727;SDS011;65652;53.132;18.026;2023-03-13T13:55:55;8.10;;;3.30;;
76727;SDS011;65652;53.132;18.026;2023-03-13T14:00:58;8.80;;;3.50;;
76727;SDS011;65652;53.132;18.026;2023-03-13T14:03:27;7.80;;;3.00;;
76727;SDS011;65652;53.132;18.026;2023-03-13T14:06:41;9.60;;;4.10;;
76727;SDS011;65652;53.132;18.026;2023-03-13T14:08:51;5.90;;;2.70;;
76727;SDS011;65652;53.132;18.026;2023-03-13T14:11:55;8.30;;;3.80;;
76727;SDS011;65652;53.132;18.026;2023-03-13T14:14:18;8.20;;;3.40;;
76727;SDS011;65652;53.132;18.026;2023-03-13T14:16:50;7.20;;;3.00;;
76727;SDS011;65652;53.132;18.026;2023-03-13T14:19:20;9.50;;;3.30;;
76727;SDS011;65652;53.132;18.026;2023-03-13T14:22:04;8.50;;;3.80;;
76727;SDS011;65652;53.132;18.026;2023-03-13T14:24:34;8.30;;;3.90;;
76727;SDS011;65652;53.132;18.026;2023-03-13T14:27:02;8.50;;;3.80;;
76727;SDS011;65652;53.132;18.026;2023-03-13T14:29:40;7.70;;;3.50;;
76727;SDS011;65652;53.132;18.026;2023-03-13T14:32:07;9.70;;;4.20;;
76727;SDS011;65652;53.132;18.026;2023-03-13T14:34:34;9.80;;;4.10;;
76727;SDS011;65652;53.132;18.026;2023-03-13T14:37:01;8.40;;;4.10;;
76727;SDS011;65652;53.132;18.026;2023-03-13T14:45:00;9.50;;;4.60;;
76727;SDS011;65652;53.132;18.026;2023-03-13T14:47:38;9.20;;;4.00;;
76727;SDS011;65652;53.132;18.026;2023-03-13T14:50:10;8.70;;;5.00;;
76727;SDS011;65652;53.132;18.026;2023-03-13T14:52:43;11.10;;;4.80;;
76727;SDS011;65652;53.132;18.026;2023-03-13T14:57:54;10.90;;;4.20;;
76727;SDS011;65652;53.132;18.026;2023-03-13T15:00:28;11.10;;;4.40;;
76727;SDS011;65652;53.132;18.026;2023-03-13T15:05:48;8.60;;;4.20;;
76727;SDS011;65652;53.132;18.026;2023-03-13T15:08:20;10.20;;;4.70;;
76727;SDS011;65652;53.132;18.026;2023-03-13T15:10:49;11.80;;;5.20;;
76727;SDS011;65652;53.132;18.026;2023-03-13T15:13:23;10.10;;;4.60;;
76727;SDS011;65652;53.132;18.026;2023-03-13T15:15:59;10.00;;;5.10;;
76727;SDS011;65652;53.132;18.026;2023-03-13T15:18:28;8.90;;;4.40;;
76727;SDS011;65652;53.132;18.026;2023-03-13T15:23:44;10.00;;;5.10;;
76727;SDS011;65652;53.132;18.026;2023-03-13T15:26:15;10.70;;;5.30;;
76727;SDS011;65652;53.132;18.026;2023-03-13T15:28:42;9.00;;;4.80;;
76727;SDS011;65652;53.132;18.026;2023-03-13T15:31:12;11.40;;;5.70;;
76727;SDS011;65652;53.132;18.026;2023-03-13T15:33:41;12.60;;;5.40;;
76727;SDS011;65652;53.132;18.026;2023-03-13T15:36:09;11.60;;;5.10;;
76727;SDS011;65652;53.132;18.026;2023-03-13T15:38:37;9.60;;;4.80;;
76727;SDS011;65652;53.132;18.026;2023-03-13T15:41:05;13.50;;;6.20;;
76727;SDS011;65652;53.132;18.026;2023-03-13T15:43:34;11.90;;;5.30;;
76727;SDS011;65652;53.132;18.026;2023-03-13T15:46:01;10.10;;;5.50;;
76727;SDS011;65652;53.132;18.026;2023-03-13T15:48:29;10.70;;;4.70;;
76727;SDS011;65652;53.132;18.026;2023-03-13T15:50:58;10.60;;;5.40;;
76727;SDS011;65652;53.132;18.026;2023-03-13T15:53:27;8.50;;;4.70;;
76727;SDS011;65652;53.132;18.026;2023-03-13T15:55:59;11.50;;;5.30;;
76727;SDS011;65652;53.132;18.026;2023-03-13T15:58:28;12.20;;;5.80;;
76727;SDS011;65652;53.132;18.026;2023-03-13T16:00:56;11.40;;;6.10;;
76727;SDS011;65652;53.132;18.026;2023-03-13T16:03:24;10.60;;;5.10;;
76727;SDS011;65652;53.132;18.026;2023-03-13T16:05:53;14.10;;;5.90;;
76727;SDS011;65652;53.132;18.026;2023-03-13T16:08:25;12.40;;;5.20;;
76727;SDS011;65652;53.132;18.026;2023-03-13T16:10:53;12.10;;;5.30;;
76727;SDS011;65652;53.132;18.026;2023-03-13T16:13:20;10.40;;;5.40;;
76727;SDS011;65652;53.132;18.026;2023-03-13T16:15:47;11.60;;;5.00;;
76727;SDS011;65652;53.132;18.026;2023-03-13T16:18:17;12.30;;;5.30;;
76727;SDS011;65652;53.132;18.026;2023-03-13T16:20:46;11.50;;;4.80;;
76727;SDS011;65652;53.132;18.026;2023-03-13T16:23:13;10.90;;;4.80;;
76727;SDS011;65652;53.132;18.026;2023-03-13T16:25:45;11.80;;;5.90;;
76727;SDS011;65652;53.132;18.026;2023-03-13T16:28:13;11.60;;;5.80;;
76727;SDS011;65652;53.132;18.026;2023-03-13T16:30:41;10.70;;;4.20;;
76727;SDS011;65652;53.132;18.026;2023-03-13T16:33:12;11.80;;;5.10;;
76727;SDS011;65652;53.132;18.026;2023-03-13T16:35:39;9.50;;;4.20;;
76727;SDS011;65652;53.132;18.026;2023-03-13T16:38:08;10.90;;;4.50;;
76727;SDS011;65652;53.132;18.026;2023-03-13T16:40:36;9.60;;;4.40;;
76727;SDS011;65652;53.132;18.026;2023-03-13T16:43:03;9.00;;;4.20;;
76727;SDS011;65652;53.132;18.026;2023-03-13T16:45:30;11.00;;;4.80;;
76727;SDS011;65652;53.132;18.026;2023-03-13T16:47:57;10.20;;;5.00;;
76727;SDS011;65652;53.132;18.026;2023-03-13T16:50:28;9.70;;;3.90;;
76727;SDS011;65652;53.132;18.026;2023-03-13T16:52:58;10.60;;;4.60;;
76727;SDS011;65652;53.132;18.026;2023-03-13T16:55:25;8.90;;;4.30;;
76727;SDS011;65652;53.132;18.026;2023-03-13T16:58:01;10.30;;;4.70;;